CPA138 YSSY-VHHH
Flight info
| Callsign | CPA138 |
|---|---|
| Flight time | N/A |
| Altitude | 40000 |
| Route | RIC H530 SURVO R340 AMN A461 TANAL/N0482F430 A461 ZAM A583 SABNO V542 BETTY |
| Aircraft | A359/H-SDE2E3GHIJ3J4J5LM1ORWXY/LB1D1 |
Departure
| Time | N/A |
|---|---|
| Airport | Sydney Kingsford Smith International Airport (YSSY) |
Arrival
| Time | 2026-05-06 19:23 |
|---|---|
| Airport | Hong Kong International Airport (VHHH) |
| Time | Latitude | Longitude | Altitude | Speed | Heading |
|---|---|---|---|---|---|
| 2026-05-06 16:30 | 3.31750 | 124.12472 | 39864 ft | 500 kts | 329° |
| 2026-05-06 16:31 | 3.37736 | 124.08912 | 39862 ft | 500 kts | 329° |
| 2026-05-06 16:31 | 3.43720 | 124.05351 | 39863 ft | 500 kts | 329° |
| 2026-05-06 16:32 | 3.49704 | 124.01791 | 39863 ft | 500 kts | 329° |
| 2026-05-06 16:32 | 3.55641 | 123.98258 | 39862 ft | 500 kts | 329° |
| 2026-05-06 16:33 | 3.61624 | 123.94696 | 39861 ft | 500 kts | 329° |
| 2026-05-06 16:34 | 3.70586 | 123.89361 | 39863 ft | 499 kts | 329° |
| 2026-05-06 16:34 | 3.76563 | 123.85802 | 39862 ft | 499 kts | 329° |
| 2026-05-06 16:35 | 3.82492 | 123.82271 | 39859 ft | 499 kts | 329° |
| 2026-05-06 16:35 | 3.88466 | 123.78713 | 39859 ft | 499 kts | 329° |
| 2026-05-06 16:36 | 3.94444 | 123.75151 | 39859 ft | 499 kts | 329° |
| 2026-05-06 16:36 | 4.00410 | 123.71598 | 39861 ft | 499 kts | 329° |
| 2026-05-06 16:37 | 4.06396 | 123.68156 | 39860 ft | 499 kts | 330° |
| 2026-05-06 16:37 | 4.12465 | 123.64759 | 39860 ft | 498 kts | 330° |
| 2026-05-06 16:38 | 4.18506 | 123.61366 | 39861 ft | 497 kts | 330° |
| 2026-05-06 16:38 | 4.24501 | 123.57980 | 39861 ft | 497 kts | 330° |
| 2026-05-06 16:39 | 4.30516 | 123.54573 | 39856 ft | 497 kts | 330° |
| 2026-05-06 16:39 | 4.36532 | 123.51166 | 39860 ft | 497 kts | 330° |
| 2026-05-06 16:40 | 4.42548 | 123.47759 | 39854 ft | 497 kts | 330° |
| 2026-05-06 16:40 | 4.48569 | 123.44349 | 39857 ft | 496 kts | 330° |
| 2026-05-06 16:41 | 4.54577 | 123.40945 | 39858 ft | 496 kts | 330° |
| 2026-05-06 16:41 | 4.60589 | 123.37539 | 39857 ft | 496 kts | 330° |
| 2026-05-06 16:42 | 4.66560 | 123.34154 | 39858 ft | 496 kts | 330° |
| 2026-05-06 16:42 | 4.72573 | 123.30746 | 39858 ft | 496 kts | 330° |
| 2026-05-06 16:43 | 4.78586 | 123.27337 | 39860 ft | 496 kts | 330° |
| 2026-05-06 16:43 | 4.84566 | 123.23946 | 39859 ft | 496 kts | 330° |
| 2026-05-06 16:44 | 4.90573 | 123.20539 | 39861 ft | 496 kts | 330° |
| 2026-05-06 16:44 | 4.96581 | 123.17131 | 39859 ft | 496 kts | 330° |
| 2026-05-06 16:45 | 5.02596 | 123.13718 | 39857 ft | 496 kts | 330° |
| 2026-05-06 16:45 | 5.08612 | 123.10304 | 39861 ft | 496 kts | 330° |
| 2026-05-06 16:46 | 5.14594 | 123.06908 | 39858 ft | 496 kts | 330° |
| 2026-05-06 16:46 | 5.20592 | 123.03503 | 39860 ft | 496 kts | 330° |
| 2026-05-06 16:47 | 5.25588 | 123.00665 | 39858 ft | 496 kts | 330° |
| 2026-05-06 16:47 | 5.31589 | 122.97257 | 39861 ft | 495 kts | 330° |
| 2026-05-06 16:48 | 5.37595 | 122.93844 | 39855 ft | 495 kts | 330° |
| 2026-05-06 16:48 | 5.43567 | 122.90450 | 39859 ft | 495 kts | 330° |
| 2026-05-06 16:49 | 5.49574 | 122.87036 | 39862 ft | 494 kts | 329° |
| 2026-05-06 16:49 | 5.55562 | 122.83632 | 39855 ft | 494 kts | 329° |
| 2026-05-06 16:50 | 5.61546 | 122.80229 | 39856 ft | 493 kts | 330° |
| 2026-05-06 16:50 | 5.67489 | 122.76848 | 39857 ft | 494 kts | 330° |
| 2026-05-06 16:51 | 5.73476 | 122.73442 | 39858 ft | 494 kts | 329° |
| 2026-05-06 16:51 | 5.79452 | 122.70040 | 39852 ft | 494 kts | 330° |
| 2026-05-06 16:52 | 5.85439 | 122.66633 | 39856 ft | 494 kts | 330° |
| 2026-05-06 16:52 | 5.91428 | 122.63223 | 39849 ft | 495 kts | 330° |
| 2026-05-06 16:53 | 5.97386 | 122.59830 | 39850 ft | 495 kts | 330° |
| 2026-05-06 16:53 | 6.03386 | 122.56412 | 39852 ft | 495 kts | 330° |
| 2026-05-06 16:54 | 6.09341 | 122.53019 | 39851 ft | 495 kts | 330° |
| 2026-05-06 16:54 | 6.15339 | 122.49600 | 39854 ft | 495 kts | 330° |
| 2026-05-06 16:55 | 6.21334 | 122.46182 | 39853 ft | 494 kts | 330° |
| 2026-05-06 16:55 | 6.27328 | 122.42765 | 39855 ft | 495 kts | 330° |
| 2026-05-06 16:56 | 6.33317 | 122.39349 | 39859 ft | 495 kts | 330° |
| 2026-05-06 16:56 | 6.39273 | 122.35950 | 39855 ft | 495 kts | 330° |
| 2026-05-06 16:57 | 6.45264 | 122.32531 | 39858 ft | 494 kts | 330° |
| 2026-05-06 16:57 | 6.51243 | 122.29118 | 39858 ft | 494 kts | 330° |
| 2026-05-06 16:58 | 6.57228 | 122.25702 | 39856 ft | 494 kts | 330° |
| 2026-05-06 16:58 | 6.63207 | 122.22289 | 39857 ft | 494 kts | 330° |
| 2026-05-06 16:59 | 6.69151 | 122.18890 | 39867 ft | 494 kts | 330° |
| 2026-05-06 16:59 | 6.75128 | 122.15473 | 39875 ft | 494 kts | 330° |
| 2026-05-06 17:00 | 6.81110 | 122.12052 | 39860 ft | 494 kts | 330° |
| 2026-05-06 17:00 | 6.87094 | 122.08630 | 39864 ft | 494 kts | 330° |
| 2026-05-06 17:01 | 6.93088 | 122.05203 | 39859 ft | 494 kts | 330° |
| 2026-05-06 17:01 | 6.99180 | 122.02066 | 39860 ft | 494 kts | 334° |
| 2026-05-06 17:02 | 7.05412 | 121.99109 | 39854 ft | 494 kts | 335° |
| 2026-05-06 17:02 | 7.11611 | 121.96132 | 39861 ft | 494 kts | 334° |
| 2026-05-06 17:03 | 7.17818 | 121.93096 | 39862 ft | 495 kts | 334° |
| 2026-05-06 17:03 | 7.23988 | 121.90057 | 39861 ft | 495 kts | 334° |
| 2026-05-06 17:04 | 7.30180 | 121.87006 | 39860 ft | 495 kts | 334° |
| 2026-05-06 17:04 | 7.36378 | 121.83961 | 39852 ft | 496 kts | 334° |
| 2026-05-06 17:05 | 7.42572 | 121.80911 | 39852 ft | 495 kts | 334° |
| 2026-05-06 17:05 | 7.48760 | 121.77863 | 39852 ft | 495 kts | 334° |
| 2026-05-06 17:06 | 7.54385 | 121.75094 | 39854 ft | 496 kts | 334° |
| 2026-05-06 17:06 | 7.60541 | 121.72062 | 39850 ft | 495 kts | 334° |
| 2026-05-06 17:07 | 7.66742 | 121.69008 | 39849 ft | 495 kts | 334° |
| 2026-05-06 17:07 | 7.72937 | 121.65955 | 39848 ft | 496 kts | 334° |
| 2026-05-06 17:08 | 7.79105 | 121.62915 | 39851 ft | 495 kts | 334° |
| 2026-05-06 17:08 | 7.85297 | 121.59862 | 39852 ft | 495 kts | 334° |
| 2026-05-06 17:09 | 7.91489 | 121.56808 | 39849 ft | 496 kts | 334° |
| 2026-05-06 17:09 | 7.97698 | 121.53745 | 39848 ft | 496 kts | 334° |
| 2026-05-06 17:10 | 8.03905 | 121.50681 | 39856 ft | 495 kts | 334° |
| 2026-05-06 17:10 | 8.10056 | 121.47644 | 39859 ft | 496 kts | 334° |
| 2026-05-06 17:11 | 8.16258 | 121.44581 | 39854 ft | 498 kts | 334° |
| 2026-05-06 17:11 | 8.22475 | 121.41509 | 39852 ft | 497 kts | 334° |
| 2026-05-06 17:12 | 8.28680 | 121.38443 | 39859 ft | 497 kts | 334° |
| 2026-05-06 17:12 | 8.34898 | 121.35368 | 39857 ft | 498 kts | 334° |
| 2026-05-06 17:13 | 8.41123 | 121.32289 | 39856 ft | 497 kts | 334° |
| 2026-05-06 17:13 | 8.47332 | 121.29218 | 39854 ft | 496 kts | 334° |
| 2026-05-06 17:14 | 8.53491 | 121.26169 | 39852 ft | 496 kts | 334° |
| 2026-05-06 17:14 | 8.59690 | 121.23100 | 39855 ft | 497 kts | 334° |
| 2026-05-06 17:15 | 8.65901 | 121.20023 | 39854 ft | 497 kts | 334° |
| 2026-05-06 17:15 | 8.72109 | 121.16947 | 39857 ft | 497 kts | 334° |
| 2026-05-06 17:16 | 8.78322 | 121.13867 | 39850 ft | 497 kts | 334° |
| 2026-05-06 17:16 | 8.84543 | 121.10783 | 39854 ft | 497 kts | 334° |
| 2026-05-06 17:17 | 8.90715 | 121.07721 | 39854 ft | 497 kts | 334° |
| 2026-05-06 17:17 | 8.96928 | 121.04638 | 39853 ft | 497 kts | 334° |
| 2026-05-06 17:18 | 9.03136 | 121.01556 | 39855 ft | 497 kts | 334° |
| 2026-05-06 17:18 | 9.09345 | 120.98473 | 39852 ft | 497 kts | 334° |
| 2026-05-06 17:19 | 9.15524 | 120.95403 | 39853 ft | 497 kts | 334° |
| 2026-05-06 17:19 | 9.21731 | 120.92318 | 39852 ft | 497 kts | 333° |
| 2026-05-06 17:20 | 9.27940 | 120.89231 | 39855 ft | 497 kts | 333° |
| 2026-05-06 17:20 | 9.34155 | 120.86140 | 39856 ft | 497 kts | 333° |
| 2026-05-06 17:21 | 9.40362 | 120.83051 | 39855 ft | 497 kts | 333° |
| 2026-05-06 17:21 | 9.46570 | 120.79961 | 39850 ft | 497 kts | 333° |
| 2026-05-06 17:22 | 9.52774 | 120.76871 | 39853 ft | 497 kts | 333° |
| 2026-05-06 17:22 | 9.58946 | 120.73796 | 39853 ft | 497 kts | 333° |
| 2026-05-06 17:23 | 9.65154 | 120.70702 | 39847 ft | 497 kts | 333° |
| 2026-05-06 17:23 | 9.71361 | 120.67608 | 39853 ft | 497 kts | 333° |
| 2026-05-06 17:24 | 9.77573 | 120.64514 | 39854 ft | 497 kts | 333° |
| 2026-05-06 17:24 | 9.83751 | 120.61429 | 39850 ft | 497 kts | 333° |
| 2026-05-06 17:25 | 9.89948 | 120.58331 | 39849 ft | 497 kts | 333° |
| 2026-05-06 17:25 | 9.96156 | 120.55227 | 39853 ft | 497 kts | 333° |
| 2026-05-06 17:26 | 10.02376 | 120.52119 | 39850 ft | 497 kts | 333° |
| 2026-05-06 17:26 | 10.08587 | 120.49013 | 39853 ft | 497 kts | 333° |
| 2026-05-06 17:27 | 10.14792 | 120.45909 | 39851 ft | 497 kts | 333° |
| 2026-05-06 17:27 | 10.20963 | 120.42821 | 39851 ft | 497 kts | 333° |
| 2026-05-06 17:28 | 10.27177 | 120.39714 | 39850 ft | 497 kts | 333° |
| 2026-05-06 17:28 | 10.33384 | 120.36593 | 39849 ft | 497 kts | 333° |
| 2026-05-06 17:29 | 10.39577 | 120.33473 | 39853 ft | 497 kts | 333° |
| 2026-05-06 17:29 | 10.45731 | 120.30375 | 39851 ft | 497 kts | 333° |
| 2026-05-06 17:30 | 10.51937 | 120.27252 | 39848 ft | 497 kts | 333° |
| 2026-05-06 17:30 | 10.58126 | 120.24137 | 39849 ft | 496 kts | 333° |
| 2026-05-06 17:31 | 10.64318 | 120.21018 | 39849 ft | 497 kts | 333° |
| 2026-05-06 17:31 | 10.70523 | 120.17891 | 39854 ft | 497 kts | 333° |
| 2026-05-06 17:32 | 10.76725 | 120.14765 | 39849 ft | 497 kts | 333° |
| 2026-05-06 17:32 | 10.82911 | 120.11645 | 39849 ft | 497 kts | 332° |
| 2026-05-06 17:33 | 10.89066 | 120.08540 | 39853 ft | 495 kts | 332° |
| 2026-05-06 17:33 | 10.95239 | 120.05424 | 39852 ft | 495 kts | 332° |
| 2026-05-06 17:34 | 11.01408 | 120.02308 | 39854 ft | 495 kts | 332° |
| 2026-05-06 17:34 | 11.07589 | 119.99194 | 39850 ft | 495 kts | 332° |
| 2026-05-06 17:35 | 11.13753 | 119.96068 | 39854 ft | 494 kts | 332° |
| 2026-05-06 17:35 | 11.18871 | 119.93469 | 39856 ft | 494 kts | 332° |
| 2026-05-06 17:36 | 11.28106 | 119.88783 | 39855 ft | 494 kts | 332° |
| 2026-05-06 17:36 | 11.34259 | 119.85662 | 39852 ft | 494 kts | 332° |
| 2026-05-06 17:37 | 11.40422 | 119.82535 | 39861 ft | 494 kts | 332° |
| 2026-05-06 17:37 | 11.46555 | 119.79422 | 39862 ft | 494 kts | 332° |
| 2026-05-06 17:38 | 11.52710 | 119.76296 | 39859 ft | 494 kts | 332° |
| 2026-05-06 17:38 | 11.58864 | 119.73168 | 39854 ft | 494 kts | 332° |
| 2026-05-06 17:39 | 11.65017 | 119.70039 | 39859 ft | 494 kts | 332° |
| 2026-05-06 17:39 | 11.71174 | 119.66910 | 39855 ft | 494 kts | 332° |
| 2026-05-06 17:40 | 11.77341 | 119.63784 | 39859 ft | 494 kts | 332° |
| 2026-05-06 17:40 | 11.83460 | 119.60679 | 39858 ft | 493 kts | 332° |
| 2026-05-06 17:41 | 11.89614 | 119.57554 | 39856 ft | 493 kts | 332° |
| 2026-05-06 17:41 | 11.95759 | 119.54432 | 39852 ft | 493 kts | 332° |
| 2026-05-06 17:42 | 12.01903 | 119.51310 | 39855 ft | 493 kts | 332° |
| 2026-05-06 17:42 | 12.08049 | 119.48186 | 39858 ft | 493 kts | 332° |
| 2026-05-06 17:43 | 12.14152 | 119.45081 | 39858 ft | 492 kts | 331° |
| 2026-05-06 17:43 | 12.20293 | 119.41957 | 39857 ft | 492 kts | 331° |
| 2026-05-06 17:44 | 12.26417 | 119.38838 | 39859 ft | 492 kts | 331° |
| 2026-05-06 17:44 | 12.32555 | 119.35711 | 39855 ft | 492 kts | 331° |
| 2026-05-06 17:45 | 12.38685 | 119.32586 | 39855 ft | 492 kts | 331° |
| 2026-05-06 17:45 | 12.44816 | 119.29460 | 39858 ft | 492 kts | 331° |
| 2026-05-06 17:46 | 12.50909 | 119.26351 | 39859 ft | 492 kts | 331° |
| 2026-05-06 17:46 | 12.57029 | 119.23227 | 39859 ft | 491 kts | 331° |
| 2026-05-06 17:47 | 12.63151 | 119.20099 | 39862 ft | 491 kts | 331° |
| 2026-05-06 17:47 | 12.69239 | 119.16988 | 39865 ft | 491 kts | 331° |
| 2026-05-06 17:48 | 12.75354 | 119.13861 | 39859 ft | 491 kts | 331° |
| 2026-05-06 17:48 | 12.81474 | 119.10730 | 39861 ft | 491 kts | 331° |
| 2026-05-06 17:49 | 12.87577 | 119.07607 | 39863 ft | 490 kts | 331° |
| 2026-05-06 17:49 | 12.93670 | 119.04486 | 39862 ft | 489 kts | 331° |
| 2026-05-06 17:50 | 12.99761 | 119.01364 | 39868 ft | 489 kts | 331° |
| 2026-05-06 17:50 | 13.05856 | 118.98247 | 39866 ft | 489 kts | 331° |
| 2026-05-06 17:51 | 13.11913 | 118.95138 | 39868 ft | 489 kts | 331° |
| 2026-05-06 17:51 | 13.18005 | 118.92006 | 39861 ft | 488 kts | 331° |
| 2026-05-06 17:52 | 13.24064 | 118.88893 | 39864 ft | 486 kts | 331° |
| 2026-05-06 17:52 | 13.30118 | 118.85782 | 39867 ft | 486 kts | 331° |
| 2026-05-06 17:53 | 13.36172 | 118.82670 | 39864 ft | 486 kts | 331° |
| 2026-05-06 17:53 | 13.42232 | 118.79553 | 39867 ft | 486 kts | 331° |
| 2026-05-06 17:54 | 13.48253 | 118.76454 | 39864 ft | 486 kts | 331° |
| 2026-05-06 17:54 | 13.54306 | 118.73336 | 39867 ft | 486 kts | 331° |
| 2026-05-06 17:55 | 13.60366 | 118.70216 | 39864 ft | 486 kts | 331° |
| 2026-05-06 17:55 | 13.66419 | 118.67097 | 39864 ft | 486 kts | 331° |
| 2026-05-06 17:56 | 13.72440 | 118.63987 | 39863 ft | 486 kts | 331° |
| 2026-05-06 17:56 | 13.78481 | 118.60867 | 39866 ft | 486 kts | 331° |
| 2026-05-06 17:57 | 13.84527 | 118.57743 | 39867 ft | 486 kts | 331° |
| 2026-05-06 17:57 | 13.90563 | 118.54623 | 39868 ft | 486 kts | 331° |
| 2026-05-06 17:58 | 13.96607 | 118.51498 | 39868 ft | 485 kts | 331° |
| 2026-05-06 17:58 | 14.02643 | 118.48374 | 39868 ft | 486 kts | 331° |
| 2026-05-06 17:59 | 14.08646 | 118.45266 | 39865 ft | 485 kts | 331° |
| 2026-05-06 17:59 | 14.14695 | 118.42132 | 39871 ft | 485 kts | 331° |
| 2026-05-06 18:00 | 14.20746 | 118.38995 | 39860 ft | 486 kts | 332° |
| 2026-05-06 18:00 | 14.26746 | 118.35883 | 39871 ft | 486 kts | 332° |
| 2026-05-06 18:01 | 14.32800 | 118.32744 | 39871 ft | 486 kts | 332° |
| 2026-05-06 18:01 | 14.38837 | 118.29612 | 39870 ft | 485 kts | 332° |
| 2026-05-06 18:02 | 14.44876 | 118.26469 | 39869 ft | 485 kts | 332° |
| 2026-05-06 18:02 | 14.50910 | 118.23329 | 39871 ft | 486 kts | 332° |
| 2026-05-06 18:03 | 14.56910 | 118.20206 | 39873 ft | 486 kts | 332° |
| 2026-05-06 18:03 | 14.62955 | 118.17059 | 39869 ft | 486 kts | 332° |
| 2026-05-06 18:04 | 14.69006 | 118.13908 | 39872 ft | 486 kts | 332° |
| 2026-05-06 18:04 | 14.75023 | 118.10771 | 39870 ft | 486 kts | 332° |
| 2026-05-06 18:05 | 14.79827 | 118.08266 | 39873 ft | 486 kts | 332° |
| 2026-05-06 18:05 | 14.85826 | 118.05134 | 39875 ft | 486 kts | 332° |
| 2026-05-06 18:06 | 14.91874 | 118.01976 | 39874 ft | 487 kts | 332° |
| 2026-05-06 18:06 | 14.97936 | 117.98809 | 39877 ft | 487 kts | 332° |
| 2026-05-06 18:07 | 15.03987 | 117.95645 | 39874 ft | 487 kts | 332° |
| 2026-05-06 18:07 | 15.10041 | 117.92478 | 39875 ft | 487 kts | 332° |
| 2026-05-06 18:08 | 15.16049 | 117.89333 | 39871 ft | 487 kts | 332° |
| 2026-05-06 18:08 | 15.22104 | 117.86160 | 39876 ft | 487 kts | 332° |
| 2026-05-06 18:09 | 15.28160 | 117.82986 | 39876 ft | 487 kts | 332° |
| 2026-05-06 18:09 | 15.34216 | 117.79809 | 39877 ft | 487 kts | 332° |
| 2026-05-06 18:10 | 15.40230 | 117.76652 | 39879 ft | 487 kts | 332° |
| 2026-05-06 18:10 | 15.46293 | 117.73468 | 39878 ft | 487 kts | 332° |
| 2026-05-06 18:11 | 15.51335 | 117.70818 | 39881 ft | 487 kts | 332° |
| 2026-05-06 18:11 | 15.58361 | 117.67124 | 39879 ft | 486 kts | 332° |
| 2026-05-06 18:12 | 15.64395 | 117.63948 | 39880 ft | 486 kts | 332° |
| 2026-05-06 18:12 | 15.70434 | 117.60768 | 39882 ft | 486 kts | 332° |
| 2026-05-06 18:13 | 15.76460 | 117.57592 | 39881 ft | 486 kts | 332° |
| 2026-05-06 18:13 | 15.82499 | 117.54408 | 39881 ft | 486 kts | 332° |
| 2026-05-06 18:14 | 15.88534 | 117.51223 | 39883 ft | 485 kts | 332° |
| 2026-05-06 18:14 | 15.94544 | 117.48050 | 39880 ft | 484 kts | 332° |
| 2026-05-06 18:15 | 16.00548 | 117.44877 | 39881 ft | 484 kts | 332° |
| 2026-05-06 18:15 | 16.06555 | 117.41701 | 39881 ft | 485 kts | 332° |
| 2026-05-06 18:16 | 16.12532 | 117.38539 | 39880 ft | 484 kts | 332° |
| 2026-05-06 18:16 | 16.18552 | 117.35351 | 39886 ft | 484 kts | 332° |
| 2026-05-06 18:17 | 16.24563 | 117.32166 | 39884 ft | 484 kts | 332° |
| 2026-05-06 18:17 | 16.30532 | 117.29001 | 39884 ft | 484 kts | 332° |
| 2026-05-06 18:18 | 16.36547 | 117.25810 | 39886 ft | 484 kts | 332° |
| 2026-05-06 18:18 | 16.42563 | 117.22616 | 39886 ft | 484 kts | 332° |
| 2026-05-06 18:19 | 16.48536 | 117.19445 | 39887 ft | 484 kts | 332° |
| 2026-05-06 18:19 | 16.54537 | 117.16254 | 39887 ft | 484 kts | 332° |
| 2026-05-06 18:20 | 16.60526 | 117.13066 | 39888 ft | 483 kts | 332° |
| 2026-05-06 18:20 | 16.66509 | 117.09880 | 39885 ft | 483 kts | 332° |
| 2026-05-06 18:21 | 16.72471 | 117.06702 | 39887 ft | 483 kts | 332° |
| 2026-05-06 18:21 | 16.78453 | 117.03513 | 39887 ft | 483 kts | 332° |
| 2026-05-06 18:22 | 16.84447 | 117.00314 | 39886 ft | 483 kts | 332° |
| 2026-05-06 18:22 | 16.90428 | 116.97121 | 39886 ft | 483 kts | 332° |
| 2026-05-06 18:23 | 16.95401 | 116.94464 | 39890 ft | 483 kts | 332° |
| 2026-05-06 18:23 | 17.01381 | 116.91266 | 39888 ft | 483 kts | 332° |
| 2026-05-06 18:24 | 17.07360 | 116.88067 | 39884 ft | 483 kts | 332° |
| 2026-05-06 18:24 | 17.13345 | 116.84862 | 39886 ft | 483 kts | 332° |
| 2026-05-06 18:25 | 17.19321 | 116.81660 | 39887 ft | 482 kts | 332° |
| 2026-05-06 18:25 | 17.25299 | 116.78455 | 39887 ft | 482 kts | 332° |
| 2026-05-06 18:26 | 17.31227 | 116.75273 | 39887 ft | 482 kts | 332° |
| 2026-05-06 18:26 | 17.37201 | 116.72065 | 39885 ft | 482 kts | 332° |
| 2026-05-06 18:27 | 17.43175 | 116.68854 | 39887 ft | 482 kts | 332° |
| 2026-05-06 18:27 | 17.49142 | 116.65646 | 39888 ft | 482 kts | 332° |
| 2026-05-06 18:28 | 17.55107 | 116.62435 | 39890 ft | 482 kts | 332° |
| 2026-05-06 18:28 | 17.61066 | 116.59226 | 39892 ft | 481 kts | 332° |
| 2026-05-06 18:29 | 17.67026 | 116.56013 | 39893 ft | 481 kts | 332° |
| 2026-05-06 18:29 | 17.72944 | 116.52821 | 39891 ft | 481 kts | 332° |
| 2026-05-06 18:30 | 17.78891 | 116.49612 | 39894 ft | 480 kts | 332° |
| 2026-05-06 18:30 | 17.84838 | 116.46404 | 39892 ft | 480 kts | 332° |
| 2026-05-06 18:31 | 17.90785 | 116.43184 | 39886 ft | 480 kts | 332° |
| 2026-05-06 18:31 | 17.96689 | 116.39987 | 39889 ft | 480 kts | 332° |
| 2026-05-06 18:32 | 18.02658 | 116.36754 | 39893 ft | 480 kts | 332° |
| 2026-05-06 18:32 | 18.08568 | 116.33552 | 39888 ft | 480 kts | 332° |
| 2026-05-06 18:33 | 18.14504 | 116.30333 | 39893 ft | 480 kts | 332° |
| 2026-05-06 18:33 | 18.20441 | 116.27111 | 39897 ft | 480 kts | 332° |
| 2026-05-06 18:34 | 18.26382 | 116.23884 | 39891 ft | 480 kts | 332° |
| 2026-05-06 18:34 | 18.32275 | 116.20681 | 39891 ft | 479 kts | 332° |
| 2026-05-06 18:35 | 18.38203 | 116.17455 | 39890 ft | 479 kts | 332° |
| 2026-05-06 18:35 | 18.44131 | 116.14228 | 39896 ft | 479 kts | 332° |
| 2026-05-06 18:36 | 18.50046 | 116.11005 | 39895 ft | 479 kts | 332° |
| 2026-05-06 18:36 | 18.55973 | 116.07773 | 39895 ft | 479 kts | 332° |
| 2026-05-06 18:37 | 18.61848 | 116.04567 | 39893 ft | 478 kts | 332° |
| 2026-05-06 18:37 | 18.67768 | 116.01334 | 39898 ft | 478 kts | 332° |
| 2026-05-06 18:38 | 18.73675 | 115.98106 | 39889 ft | 478 kts | 332° |
| 2026-05-06 18:38 | 18.79595 | 115.94867 | 39891 ft | 478 kts | 332° |
| 2026-05-06 18:39 | 18.85473 | 115.91649 | 39897 ft | 477 kts | 332° |
| 2026-05-06 18:40 | 18.94276 | 115.86748 | 39897 ft | 476 kts | 327° |
| 2026-05-06 18:40 | 18.99362 | 115.82325 | 39901 ft | 473 kts | 311° |
| 2026-05-06 18:41 | 19.03179 | 115.76658 | 39897 ft | 473 kts | 302° |
| 2026-05-06 18:41 | 19.06643 | 115.70730 | 39899 ft | 474 kts | 301° |
| 2026-05-06 18:42 | 19.10068 | 115.64767 | 39900 ft | 474 kts | 301° |
| 2026-05-06 18:42 | 19.13489 | 115.58857 | 39900 ft | 473 kts | 301° |
| 2026-05-06 18:43 | 19.16941 | 115.52926 | 39899 ft | 473 kts | 301° |
| 2026-05-06 18:43 | 19.20395 | 115.46997 | 39898 ft | 473 kts | 301° |
| 2026-05-06 18:44 | 19.23850 | 115.41059 | 39900 ft | 473 kts | 301° |
| 2026-05-06 18:44 | 19.27306 | 115.35112 | 39899 ft | 473 kts | 301° |
| 2026-05-06 18:45 | 19.30723 | 115.29226 | 39900 ft | 471 kts | 301° |
| 2026-05-06 18:45 | 19.34152 | 115.23323 | 39896 ft | 470 kts | 301° |
| 2026-05-06 18:46 | 19.37575 | 115.17411 | 39901 ft | 470 kts | 301° |
| 2026-05-06 18:46 | 19.40996 | 115.11496 | 39900 ft | 470 kts | 301° |
| 2026-05-06 18:47 | 19.44417 | 115.05579 | 39903 ft | 470 kts | 301° |
| 2026-05-06 18:47 | 19.47811 | 114.99705 | 39898 ft | 470 kts | 301° |
| 2026-05-06 18:48 | 19.51223 | 114.93794 | 39899 ft | 469 kts | 301° |
| 2026-05-06 18:48 | 19.54627 | 114.87890 | 39900 ft | 469 kts | 301° |
| 2026-05-06 18:49 | 19.58033 | 114.81978 | 39904 ft | 469 kts | 301° |
| 2026-05-06 18:49 | 19.61437 | 114.76063 | 39901 ft | 469 kts | 301° |
| 2026-05-06 18:50 | 19.65415 | 114.70590 | 39904 ft | 470 kts | 315° |
| 2026-05-06 18:50 | 19.70701 | 114.66582 | 39900 ft | 472 kts | 332° |
| 2026-05-06 18:51 | 19.76987 | 114.64552 | 39910 ft | 477 kts | 351° |
| 2026-05-06 18:51 | 19.83606 | 114.63859 | 39899 ft | 479 kts | 353° |
| 2026-05-06 18:52 | 19.90258 | 114.63349 | 39905 ft | 479 kts | 353° |
| 2026-05-06 18:52 | 19.96919 | 114.62827 | 39906 ft | 479 kts | 353° |
| 2026-05-06 18:53 | 20.03520 | 114.62277 | 39906 ft | 479 kts | 353° |
| 2026-05-06 18:53 | 20.10167 | 114.61708 | 39899 ft | 478 kts | 353° |
| 2026-05-06 18:54 | 20.16807 | 114.61139 | 39903 ft | 478 kts | 353° |
| 2026-05-06 18:54 | 20.23420 | 114.60572 | 39907 ft | 478 kts | 353° |
| 2026-05-06 18:55 | 20.30065 | 114.60003 | 39913 ft | 478 kts | 353° |
| 2026-05-06 18:55 | 20.36701 | 114.59435 | 39911 ft | 478 kts | 353° |
| 2026-05-06 18:55 | 20.40017 | 114.59150 | 39784 ft | 477 kts | 353° |
| 2026-05-06 18:56 | 20.43310 | 114.58869 | 39335 ft | 473 kts | 353° |
| 2026-05-06 18:56 | 20.46607 | 114.58586 | 38643 ft | 475 kts | 352° |
| 2026-05-06 18:56 | 20.49896 | 114.58303 | 37867 ft | 475 kts | 352° |
| 2026-05-06 18:56 | 20.53159 | 114.58023 | 37092 ft | 476 kts | 352° |
| 2026-05-06 18:57 | 20.56469 | 114.57738 | 36311 ft | 477 kts | 352° |
| 2026-05-06 18:57 | 20.59778 | 114.57453 | 35600 ft | 476 kts | 352° |
| 2026-05-06 18:57 | 20.63081 | 114.57174 | 34872 ft | 477 kts | 352° |
| 2026-05-06 18:57 | 20.66397 | 114.56889 | 34058 ft | 479 kts | 352° |
| 2026-05-06 18:58 | 20.69731 | 114.56597 | 33105 ft | 482 kts | 353° |
| 2026-05-06 18:58 | 20.73088 | 114.56303 | 32190 ft | 484 kts | 353° |
| 2026-05-06 18:58 | 20.76456 | 114.56008 | 31265 ft | 485 kts | 353° |
| 2026-05-06 18:58 | 20.79832 | 114.55713 | 30304 ft | 488 kts | 353° |
| 2026-05-06 18:59 | 20.83229 | 114.55423 | 29251 ft | 490 kts | 354° |
| 2026-05-06 18:59 | 20.86596 | 114.55354 | 28445 ft | 488 kts | 358° |
| 2026-05-06 18:59 | 20.89973 | 114.55365 | 27705 ft | 483 kts | 358° |
| 2026-05-06 18:59 | 20.93321 | 114.55387 | 26985 ft | 479 kts | 358° |
| 2026-05-06 19:00 | 20.96645 | 114.55412 | 26258 ft | 476 kts | 358° |
| 2026-05-06 19:00 | 20.99948 | 114.55440 | 25526 ft | 473 kts | 358° |
| 2026-05-06 19:00 | 21.03234 | 114.55468 | 24806 ft | 471 kts | 358° |
| 2026-05-06 19:00 | 21.05446 | 114.55488 | 24320 ft | 469 kts | 358° |
| 2026-05-06 19:01 | 21.09755 | 114.55527 | 23336 ft | 468 kts | 358° |
| 2026-05-06 19:01 | 21.13011 | 114.55556 | 22535 ft | 465 kts | 358° |
| 2026-05-06 19:01 | 21.16236 | 114.55587 | 21812 ft | 460 kts | 358° |
| 2026-05-06 19:01 | 21.19418 | 114.55616 | 21093 ft | 455 kts | 358° |
| 2026-05-06 19:02 | 21.22568 | 114.55646 | 20389 ft | 450 kts | 358° |
| 2026-05-06 19:02 | 21.25689 | 114.55675 | 19667 ft | 447 kts | 358° |
| 2026-05-06 19:02 | 21.28784 | 114.55703 | 18941 ft | 443 kts | 358° |
| 2026-05-06 19:02 | 21.31860 | 114.55732 | 18213 ft | 440 kts | 358° |
| 2026-05-06 19:03 | 21.34917 | 114.55760 | 17411 ft | 436 kts | 358° |
| 2026-05-06 19:03 | 21.37902 | 114.55787 | 16672 ft | 431 kts | 358° |
| 2026-05-06 19:03 | 21.40885 | 114.55815 | 15929 ft | 426 kts | 358° |
| 2026-05-06 19:03 | 21.43838 | 114.55842 | 15199 ft | 422 kts | 359° |
| 2026-05-06 19:04 | 21.46761 | 114.55862 | 14498 ft | 418 kts | 358° |
| 2026-05-06 19:04 | 21.49580 | 114.55494 | 14285 ft | 397 kts | 344° |
| 2026-05-06 19:04 | 21.52158 | 114.54688 | 14200 ft | 376 kts | 340° |
| 2026-05-06 19:04 | 21.54591 | 114.53845 | 14084 ft | 359 kts | 340° |
| 2026-05-06 19:05 | 21.56916 | 114.53034 | 13922 ft | 345 kts | 340° |
| 2026-05-06 19:05 | 21.59195 | 114.52234 | 13397 ft | 345 kts | 339° |
| 2026-05-06 19:05 | 21.61365 | 114.51166 | 12786 ft | 342 kts | 324° |
| 2026-05-06 19:05 | 21.63139 | 114.49492 | 12190 ft | 338 kts | 311° |
| 2026-05-06 19:06 | 21.64736 | 114.47652 | 11645 ft | 335 kts | 310° |
| 2026-05-06 19:06 | 21.66289 | 114.45833 | 11113 ft | 333 kts | 310° |
| 2026-05-06 19:06 | 21.67851 | 114.44012 | 10585 ft | 330 kts | 311° |
| 2026-05-06 19:06 | 21.69408 | 114.42201 | 10043 ft | 328 kts | 311° |
| 2026-05-06 19:07 | 21.70947 | 114.40416 | 9650 ft | 320 kts | 311° |
| 2026-05-06 19:07 | 21.71943 | 114.39266 | 9512 ft | 311 kts | 311° |
| 2026-05-06 19:07 | 21.73864 | 114.37045 | 9175 ft | 296 kts | 310° |
| 2026-05-06 19:07 | 21.75259 | 114.35428 | 8760 ft | 292 kts | 310° |
| 2026-05-06 19:08 | 21.76640 | 114.33828 | 8278 ft | 291 kts | 310° |
| 2026-05-06 19:08 | 21.78015 | 114.32234 | 7858 ft | 290 kts | 310° |
| 2026-05-06 19:08 | 21.79381 | 114.30650 | 7422 ft | 288 kts | 311° |
| 2026-05-06 19:08 | 21.80741 | 114.29073 | 6979 ft | 287 kts | 310° |
| 2026-05-06 19:09 | 21.81645 | 114.28025 | 6695 ft | 287 kts | 310° |
| 2026-05-06 19:09 | 21.83438 | 114.25947 | 6147 ft | 285 kts | 310° |
| 2026-05-06 19:09 | 21.84777 | 114.24394 | 5921 ft | 278 kts | 310° |
| 2026-05-06 19:09 | 21.86061 | 114.22908 | 5775 ft | 266 kts | 310° |
| 2026-05-06 19:10 | 21.86912 | 114.21921 | 5643 ft | 269 kts | 310° |
| 2026-05-06 19:10 | 21.88195 | 114.20428 | 5480 ft | 279 kts | 311° |
| 2026-05-06 19:10 | 21.89419 | 114.18799 | 5399 ft | 280 kts | 301° |
| 2026-05-06 19:10 | 21.90412 | 114.17001 | 5319 ft | 279 kts | 297° |
| 2026-05-06 19:11 | 21.91347 | 114.15179 | 5244 ft | 278 kts | 297° |
| 2026-05-06 19:11 | 21.92280 | 114.13358 | 5167 ft | 278 kts | 297° |
| 2026-05-06 19:11 | 21.93219 | 114.11533 | 5102 ft | 278 kts | 297° |
| 2026-05-06 19:11 | 21.94156 | 114.09713 | 5025 ft | 278 kts | 297° |
| 2026-05-06 19:12 | 21.95097 | 114.07890 | 4993 ft | 278 kts | 297° |
| 2026-05-06 19:12 | 21.96036 | 114.06069 | 4984 ft | 278 kts | 297° |
| 2026-05-06 19:12 | 21.96964 | 114.04272 | 4985 ft | 278 kts | 297° |
| 2026-05-06 19:12 | 21.97904 | 114.02450 | 4985 ft | 278 kts | 297° |
| 2026-05-06 19:13 | 21.98844 | 114.00629 | 4985 ft | 278 kts | 297° |
| 2026-05-06 19:13 | 21.99784 | 113.98807 | 4933 ft | 278 kts | 297° |
| 2026-05-06 19:13 | 22.00724 | 113.96983 | 4831 ft | 277 kts | 297° |
| 2026-05-06 19:13 | 22.01663 | 113.95162 | 4723 ft | 277 kts | 297° |
| 2026-05-06 19:14 | 22.02599 | 113.93345 | 4582 ft | 277 kts | 297° |
| 2026-05-06 19:14 | 22.03536 | 113.91527 | 4471 ft | 277 kts | 297° |
| 2026-05-06 19:14 | 22.04473 | 113.89707 | 4348 ft | 278 kts | 297° |
| 2026-05-06 19:14 | 22.05409 | 113.87890 | 4222 ft | 278 kts | 297° |
| 2026-05-06 19:15 | 22.06345 | 113.86070 | 4101 ft | 276 kts | 297° |
| 2026-05-06 19:15 | 22.07266 | 113.84281 | 4006 ft | 276 kts | 297° |
| 2026-05-06 19:15 | 22.08199 | 113.82467 | 3993 ft | 276 kts | 297° |
| 2026-05-06 19:15 | 22.09132 | 113.80652 | 3990 ft | 277 kts | 297° |
| 2026-05-06 19:16 | 22.10083 | 113.78845 | 3989 ft | 276 kts | 301° |
| 2026-05-06 19:16 | 22.11340 | 113.77348 | 3905 ft | 263 kts | 322° |
| 2026-05-06 19:16 | 22.12850 | 113.76301 | 3697 ft | 255 kts | 330° |
| 2026-05-06 19:16 | 22.14434 | 113.75451 | 3382 ft | 253 kts | 335° |
| 2026-05-06 19:17 | 22.16024 | 113.74706 | 3238 ft | 244 kts | 337° |
| 2026-05-06 19:17 | 22.17556 | 113.74016 | 3126 ft | 233 kts | 337° |
| 2026-05-06 19:17 | 22.19017 | 113.73351 | 3003 ft | 223 kts | 337° |
| 2026-05-06 19:17 | 22.20416 | 113.72801 | 2885 ft | 210 kts | 350° |
| 2026-05-06 19:18 | 22.21823 | 113.72879 | 2670 ft | 200 kts | 21° |
| 2026-05-06 19:18 | 22.23064 | 113.73531 | 2374 ft | 197 kts | 34° |
| 2026-05-06 19:18 | 22.24220 | 113.74306 | 2117 ft | 194 kts | 35° |
| 2026-05-06 19:18 | 22.25360 | 113.75097 | 1945 ft | 195 kts | 36° |
| 2026-05-06 19:19 | 22.26399 | 113.76002 | 1765 ft | 189 kts | 53° |
| 2026-05-06 19:19 | 22.27020 | 113.77183 | 1653 ft | 174 kts | 71° |
| 2026-05-06 19:19 | 22.27409 | 113.78363 | 1545 ft | 160 kts | 74° |
| 2026-05-06 19:19 | 22.27756 | 113.79432 | 1543 ft | 143 kts | 74° |
| 2026-05-06 19:20 | 22.28058 | 113.80371 | 1548 ft | 128 kts | 74° |
| 2026-05-06 19:20 | 22.28346 | 113.81263 | 1552 ft | 126 kts | 73° |
| 2026-05-06 19:20 | 22.28636 | 113.82162 | 1492 ft | 128 kts | 74° |
| 2026-05-06 19:20 | 22.28928 | 113.83068 | 1332 ft | 127 kts | 74° |
| 2026-05-06 19:21 | 22.29219 | 113.83972 | 1161 ft | 127 kts | 73° |
| 2026-05-06 19:21 | 22.29509 | 113.84876 | 983 ft | 128 kts | 72° |
| 2026-05-06 19:21 | 22.29780 | 113.85791 | 797 ft | 128 kts | 74° |
| 2026-05-06 19:21 | 22.30062 | 113.86702 | 652 ft | 128 kts | 71° |
| 2026-05-06 19:22 | 22.30384 | 113.87592 | 487 ft | 126 kts | 70° |
| 2026-05-06 19:22 | 22.30683 | 113.88483 | 327 ft | 127 kts | 72° |
| 2026-05-06 19:22 | 22.30964 | 113.89371 | 163 ft | 126 kts | 72° |
| 2026-05-06 19:22 | 22.31250 | 113.90274 | 37 ft | 123 kts | 72° |
| 2026-05-06 19:23 | 22.31471 | 113.90984 | 39 ft | 63 kts | 71° |
| 2026-05-06 19:23 | 22.31525 | 113.91151 | 39 ft | 6 kts | 70° |
| 2026-05-06 19:23 | 22.31558 | 113.91249 | 38 ft | 17 kts | 69° |
| 2026-05-06 19:23 | 22.31603 | 113.91375 | 39 ft | 19 kts | 69° |
| 2026-05-06 19:24 | 22.31641 | 113.91515 | 39 ft | 20 kts | 83° |
| 2026-05-06 19:24 | 22.31652 | 113.91673 | 37 ft | 22 kts | 85° |
| 2026-05-06 19:24 | 22.31622 | 113.91794 | 36 ft | 17 kts | 137° |
| 2026-05-06 19:24 | 22.31523 | 113.91859 | 36 ft | 9 kts | 157° |
| 2026-05-06 19:25 | 22.31521 | 113.91860 | 37 ft | 0 kts | 158° |
| 2026-05-06 19:25 | 22.31488 | 113.91874 | 37 ft | 13 kts | 158° |
| 2026-05-06 19:25 | 22.31417 | 113.91939 | 37 ft | 14 kts | 106° |
| 2026-05-06 19:25 | 22.31442 | 113.92040 | 37 ft | 14 kts | 81° |
| 2026-05-06 19:26 | 22.31409 | 113.92146 | 37 ft | 16 kts | 116° |
| 2026-05-06 19:26 | 22.31359 | 113.92260 | 37 ft | 18 kts | 115° |
| 2026-05-06 19:26 | 22.31304 | 113.92384 | 37 ft | 19 kts | 115° |
| 2026-05-06 19:26 | 22.31245 | 113.92520 | 37 ft | 21 kts | 115° |
| 2026-05-06 19:27 | 22.31234 | 113.92544 | 37 ft | 0 kts | 115° |
| 2026-05-06 19:27 | 22.31230 | 113.92548 | 37 ft | 2 kts | 131° |
| 2026-05-06 19:27 | 22.31212 | 113.92548 | 37 ft | 4 kts | 195° |
| 2026-05-06 19:27 | 22.31178 | 113.92519 | 37 ft | 9 kts | 218° |
| 2026-05-06 19:28 | 22.31115 | 113.92493 | 37 ft | 11 kts | 170° |
| 2026-05-06 19:28 | 22.31076 | 113.92530 | 37 ft | 0 kts | 113° |
| 2026-05-06 19:28 | 22.31076 | 113.92532 | 37 ft | 2 kts | 113° |
| 2026-05-06 19:28 | 22.31074 | 113.92536 | 37 ft | 0 kts | 113° |